sensor_id;sensor_type;location;lat;lon;timestamp;P1;durP1;ratioP1;P2;durP2;ratioP2
3704;SDS011;1868;48.918;9.438;2024-01-25T00:00:36;17.83;;;4.00;;
3704;SDS011;1868;48.918;9.438;2024-01-25T00:03:07;18.67;;;4.03;;
3704;SDS011;1868;48.918;9.438;2024-01-25T00:05:36;23.07;;;4.57;;
3704;SDS011;1868;48.918;9.438;2024-01-25T00:08:04;26.50;;;3.77;;
3704;SDS011;1868;48.918;9.438;2024-01-25T00:10:33;24.37;;;5.43;;
3704;SDS011;1868;48.918;9.438;2024-01-25T00:13:02;20.97;;;4.57;;
3704;SDS011;1868;48.918;9.438;2024-01-25T00:15:31;22.23;;;4.73;;
3704;SDS011;1868;48.918;9.438;2024-01-25T00:18:00;17.33;;;4.27;;
3704;SDS011;1868;48.918;9.438;2024-01-25T00:20:31;18.10;;;4.10;;
3704;SDS011;1868;48.918;9.438;2024-01-25T00:22:59;22.57;;;5.17;;
3704;SDS011;1868;48.918;9.438;2024-01-25T00:25:28;20.60;;;4.50;;
3704;SDS011;1868;48.918;9.438;2024-01-25T00:27:57;31.07;;;4.57;;
3704;SDS011;1868;48.918;9.438;2024-01-25T00:30:25;24.23;;;4.90;;
3704;SDS011;1868;48.918;9.438;2024-01-25T00:32:54;16.27;;;3.50;;
3704;SDS011;1868;48.918;9.438;2024-01-25T00:35:24;18.27;;;4.03;;
3704;SDS011;1868;48.918;9.438;2024-01-25T00:37:57;17.50;;;4.70;;
3704;SDS011;1868;48.918;9.438;2024-01-25T00:40:26;24.97;;;4.97;;
3704;SDS011;1868;48.918;9.438;2024-01-25T00:42:56;21.63;;;3.63;;
3704;SDS011;1868;48.918;9.438;2024-01-25T00:45:26;15.57;;;4.10;;
3704;SDS011;1868;48.918;9.438;2024-01-25T00:47:56;24.07;;;4.67;;
3704;SDS011;1868;48.918;9.438;2024-01-25T00:50:26;22.87;;;4.83;;
3704;SDS011;1868;48.918;9.438;2024-01-25T00:52:58;25.47;;;5.10;;
3704;SDS011;1868;48.918;9.438;2024-01-25T00:55:27;21.23;;;4.50;;
3704;SDS011;1868;48.918;9.438;2024-01-25T00:57:57;22.73;;;4.27;;
3704;SDS011;1868;48.918;9.438;2024-01-25T01:00:27;31.07;;;5.30;;
3704;SDS011;1868;48.918;9.438;2024-01-25T01:02:57;22.50;;;4.57;;
3704;SDS011;1868;48.918;9.438;2024-01-25T01:05:29;15.33;;;3.77;;
3704;SDS011;1868;48.918;9.438;2024-01-25T01:08:01;17.83;;;4.60;;
3704;SDS011;1868;48.918;9.438;2024-01-25T01:10:32;26.83;;;4.30;;
3704;SDS011;1868;48.918;9.438;2024-01-25T01:13:00;15.10;;;3.90;;
3704;SDS011;1868;48.918;9.438;2024-01-25T01:15:29;22.03;;;4.80;;
3704;SDS011;1868;48.918;9.438;2024-01-25T01:17:58;23.70;;;5.27;;
3704;SDS011;1868;48.918;9.438;2024-01-25T01:20:26;16.10;;;4.80;;
3704;SDS011;1868;48.918;9.438;2024-01-25T01:22:55;21.60;;;4.97;;
3704;SDS011;1868;48.918;9.438;2024-01-25T01:25:27;22.27;;;4.60;;
3704;SDS011;1868;48.918;9.438;2024-01-25T01:27:56;19.23;;;4.30;;
3704;SDS011;1868;48.918;9.438;2024-01-25T01:30:24;17.57;;;3.70;;
3704;SDS011;1868;48.918;9.438;2024-01-25T01:32:53;29.63;;;4.47;;
3704;SDS011;1868;48.918;9.438;2024-01-25T01:35:22;25.93;;;4.90;;
3704;SDS011;1868;48.918;9.438;2024-01-25T01:37:51;22.37;;;3.63;;
3704;SDS011;1868;48.918;9.438;2024-01-25T01:40:20;24.43;;;4.03;;
3704;SDS011;1868;48.918;9.438;2024-01-25T01:42:50;20.63;;;3.90;;
3704;SDS011;1868;48.918;9.438;2024-01-25T01:45:19;17.23;;;4.80;;
3704;SDS011;1868;48.918;9.438;2024-01-25T01:47:48;16.27;;;4.10;;
3704;SDS011;1868;48.918;9.438;2024-01-25T01:50:16;23.47;;;3.87;;
3704;SDS011;1868;48.918;9.438;2024-01-25T01:52:45;19.10;;;3.97;;
3704;SDS011;1868;48.918;9.438;2024-01-25T01:55:14;21.90;;;4.10;;
3704;SDS011;1868;48.918;9.438;2024-01-25T01:57:44;22.93;;;4.43;;
3704;SDS011;1868;48.918;9.438;2024-01-25T02:00:16;21.23;;;3.97;;
3704;SDS011;1868;48.918;9.438;2024-01-25T02:02:45;21.37;;;3.93;;
3704;SDS011;1868;48.918;9.438;2024-01-25T02:05:14;17.30;;;3.13;;
3704;SDS011;1868;48.918;9.438;2024-01-25T02:07:43;16.70;;;4.10;;
3704;SDS011;1868;48.918;9.438;2024-01-25T02:10:11;15.50;;;3.33;;
3704;SDS011;1868;48.918;9.438;2024-01-25T02:12:41;16.83;;;3.50;;
3704;SDS011;1868;48.918;9.438;2024-01-25T02:15:10;22.73;;;3.77;;
3704;SDS011;1868;48.918;9.438;2024-01-25T02:17:41;24.33;;;4.37;;
3704;SDS011;1868;48.918;9.438;2024-01-25T02:20:10;17.93;;;4.30;;
3704;SDS011;1868;48.918;9.438;2024-01-25T02:22:41;20.97;;;4.17;;
3704;SDS011;1868;48.918;9.438;2024-01-25T02:25:10;23.27;;;4.03;;
3704;SDS011;1868;48.918;9.438;2024-01-25T02:27:39;18.77;;;3.93;;
3704;SDS011;1868;48.918;9.438;2024-01-25T02:30:07;20.17;;;4.70;;
3704;SDS011;1868;48.918;9.438;2024-01-25T02:32:37;18.80;;;3.83;;
3704;SDS011;1868;48.918;9.438;2024-01-25T02:35:06;15.73;;;3.27;;
3704;SDS011;1868;48.918;9.438;2024-01-25T02:37:37;19.33;;;4.27;;
3704;SDS011;1868;48.918;9.438;2024-01-25T02:40:08;19.37;;;4.50;;
3704;SDS011;1868;48.918;9.438;2024-01-25T02:42:38;16.53;;;3.70;;
3704;SDS011;1868;48.918;9.438;2024-01-25T02:45:07;20.43;;;3.80;;
3704;SDS011;1868;48.918;9.438;2024-01-25T02:47:36;20.50;;;3.40;;
3704;SDS011;1868;48.918;9.438;2024-01-25T02:50:06;17.97;;;3.87;;
3704;SDS011;1868;48.918;9.438;2024-01-25T02:52:35;18.40;;;4.07;;
3704;SDS011;1868;48.918;9.438;2024-01-25T02:55:04;21.87;;;3.97;;
3704;SDS011;1868;48.918;9.438;2024-01-25T02:57:35;20.93;;;4.60;;
3704;SDS011;1868;48.918;9.438;2024-01-25T03:00:04;17.17;;;4.23;;
3704;SDS011;1868;48.918;9.438;2024-01-25T03:02:35;15.30;;;3.13;;
3704;SDS011;1868;48.918;9.438;2024-01-25T03:05:04;24.93;;;4.40;;
3704;SDS011;1868;48.918;9.438;2024-01-25T03:07:34;16.70;;;3.73;;
3704;SDS011;1868;48.918;9.438;2024-01-25T03:10:03;16.77;;;3.27;;
3704;SDS011;1868;48.918;9.438;2024-01-25T03:12:35;15.07;;;3.27;;
3704;SDS011;1868;48.918;9.438;2024-01-25T03:15:04;14.00;;;3.30;;
3704;SDS011;1868;48.918;9.438;2024-01-25T03:17:34;17.70;;;3.60;;
3704;SDS011;1868;48.918;9.438;2024-01-25T03:20:03;11.80;;;3.40;;
3704;SDS011;1868;48.918;9.438;2024-01-25T03:22:33;17.00;;;3.47;;
3704;SDS011;1868;48.918;9.438;2024-01-25T03:25:01;20.80;;;4.40;;
3704;SDS011;1868;48.918;9.438;2024-01-25T03:27:30;14.30;;;3.27;;
3704;SDS011;1868;48.918;9.438;2024-01-25T03:30:00;21.70;;;4.87;;
3704;SDS011;1868;48.918;9.438;2024-01-25T03:32:29;27.63;;;3.87;;
3704;SDS011;1868;48.918;9.438;2024-01-25T03:34:58;17.87;;;3.63;;
3704;SDS011;1868;48.918;9.438;2024-01-25T03:37:27;15.40;;;3.57;;
3704;SDS011;1868;48.918;9.438;2024-01-25T03:39:55;22.00;;;4.03;;
3704;SDS011;1868;48.918;9.438;2024-01-25T03:42:24;24.10;;;3.77;;
3704;SDS011;1868;48.918;9.438;2024-01-25T03:44:53;19.20;;;4.00;;
3704;SDS011;1868;48.918;9.438;2024-01-25T03:47:22;35.73;;;4.23;;
3704;SDS011;1868;48.918;9.438;2024-01-25T03:49:51;17.90;;;4.17;;
3704;SDS011;1868;48.918;9.438;2024-01-25T03:52:20;18.43;;;4.13;;
3704;SDS011;1868;48.918;9.438;2024-01-25T03:54:49;27.77;;;5.30;;
3704;SDS011;1868;48.918;9.438;2024-01-25T03:57:18;19.37;;;2.93;;
3704;SDS011;1868;48.918;9.438;2024-01-25T03:59:46;26.90;;;4.63;;
3704;SDS011;1868;48.918;9.438;2024-01-25T04:02:15;19.10;;;4.33;;
3704;SDS011;1868;48.918;9.438;2024-01-25T04:04:47;20.73;;;3.50;;
3704;SDS011;1868;48.918;9.438;2024-01-25T04:07:16;15.80;;;3.60;;
3704;SDS011;1868;48.918;9.438;2024-01-25T04:09:45;24.40;;;3.63;;
3704;SDS011;1868;48.918;9.438;2024-01-25T04:12:13;16.03;;;3.70;;
3704;SDS011;1868;48.918;9.438;2024-01-25T04:14:42;29.03;;;4.47;;
3704;SDS011;1868;48.918;9.438;2024-01-25T04:17:11;26.93;;;4.50;;
3704;SDS011;1868;48.918;9.438;2024-01-25T04:19:39;23.93;;;4.90;;
3704;SDS011;1868;48.918;9.438;2024-01-25T04:22:10;20.30;;;4.47;;
3704;SDS011;1868;48.918;9.438;2024-01-25T04:24:38;19.37;;;3.90;;
3704;SDS011;1868;48.918;9.438;2024-01-25T04:27:07;20.80;;;3.60;;
3704;SDS011;1868;48.918;9.438;2024-01-25T04:29:37;24.93;;;4.53;;
3704;SDS011;1868;48.918;9.438;2024-01-25T04:32:06;21.87;;;3.63;;
3704;SDS011;1868;48.918;9.438;2024-01-25T04:34:35;27.23;;;4.87;;
3704;SDS011;1868;48.918;9.438;2024-01-25T04:37:05;15.13;;;3.73;;
3704;SDS011;1868;48.918;9.438;2024-01-25T04:39:35;18.20;;;4.40;;
3704;SDS011;1868;48.918;9.438;2024-01-25T04:42:04;22.27;;;4.93;;
3704;SDS011;1868;48.918;9.438;2024-01-25T04:44:32;26.53;;;5.70;;
3704;SDS011;1868;48.918;9.438;2024-01-25T04:47:01;24.73;;;4.20;;
3704;SDS011;1868;48.918;9.438;2024-01-25T04:49:30;24.47;;;4.50;;
3704;SDS011;1868;48.918;9.438;2024-01-25T04:51:59;13.93;;;3.53;;
3704;SDS011;1868;48.918;9.438;2024-01-25T04:54:28;11.83;;;3.33;;
3704;SDS011;1868;48.918;9.438;2024-01-25T04:56:58;18.73;;;4.00;;
3704;SDS011;1868;48.918;9.438;2024-01-25T04:59:26;18.23;;;3.73;;
3704;SDS011;1868;48.918;9.438;2024-01-25T05:01:56;23.83;;;4.43;;
3704;SDS011;1868;48.918;9.438;2024-01-25T05:04:25;22.23;;;5.30;;
3704;SDS011;1868;48.918;9.438;2024-01-25T05:06:56;25.13;;;3.87;;
3704;SDS011;1868;48.918;9.438;2024-01-25T05:09:25;15.60;;;3.60;;
3704;SDS011;1868;48.918;9.438;2024-01-25T05:11:53;16.33;;;3.60;;
3704;SDS011;1868;48.918;9.438;2024-01-25T05:14:26;18.60;;;3.70;;
3704;SDS011;1868;48.918;9.438;2024-01-25T05:16:54;21.20;;;3.80;;
3704;SDS011;1868;48.918;9.438;2024-01-25T05:19:23;24.87;;;4.10;;
3704;SDS011;1868;48.918;9.438;2024-01-25T05:21:53;15.90;;;3.57;;
3704;SDS011;1868;48.918;9.438;2024-01-25T05:24:22;20.37;;;4.20;;
3704;SDS011;1868;48.918;9.438;2024-01-25T05:26:50;25.03;;;4.03;;
3704;SDS011;1868;48.918;9.438;2024-01-25T05:29:19;19.33;;;4.40;;
3704;SDS011;1868;48.918;9.438;2024-01-25T05:31:49;18.80;;;4.03;;
3704;SDS011;1868;48.918;9.438;2024-01-25T05:34:17;24.83;;;4.00;;
3704;SDS011;1868;48.918;9.438;2024-01-25T05:36:46;23.23;;;4.47;;
3704;SDS011;1868;48.918;9.438;2024-01-25T05:39:15;16.80;;;4.10;;
3704;SDS011;1868;48.918;9.438;2024-01-25T05:41:45;24.00;;;4.30;;
3704;SDS011;1868;48.918;9.438;2024-01-25T05:44:14;22.10;;;3.23;;
3704;SDS011;1868;48.918;9.438;2024-01-25T05:46:43;15.43;;;3.90;;
3704;SDS011;1868;48.918;9.438;2024-01-25T05:49:13;19.93;;;4.20;;
3704;SDS011;1868;48.918;9.438;2024-01-25T05:51:42;27.30;;;4.10;;
3704;SDS011;1868;48.918;9.438;2024-01-25T05:54:11;23.23;;;4.53;;
3704;SDS011;1868;48.918;9.438;2024-01-25T05:56:39;22.10;;;3.47;;
3704;SDS011;1868;48.918;9.438;2024-01-25T05:59:07;14.17;;;3.27;;
3704;SDS011;1868;48.918;9.438;2024-01-25T06:01:36;20.67;;;4.00;;
3704;SDS011;1868;48.918;9.438;2024-01-25T06:04:05;22.53;;;3.93;;
3704;SDS011;1868;48.918;9.438;2024-01-25T06:06:35;23.27;;;4.53;;
3704;SDS011;1868;48.918;9.438;2024-01-25T06:09:04;19.07;;;4.07;;
3704;SDS011;1868;48.918;9.438;2024-01-25T06:11:39;17.37;;;4.33;;
3704;SDS011;1868;48.918;9.438;2024-01-25T06:14:08;19.53;;;3.50;;
3704;SDS011;1868;48.918;9.438;2024-01-25T06:16:39;25.63;;;3.97;;
3704;SDS011;1868;48.918;9.438;2024-01-25T06:19:07;21.90;;;4.10;;
3704;SDS011;1868;48.918;9.438;2024-01-25T06:21:38;21.17;;;4.63;;
3704;SDS011;1868;48.918;9.438;2024-01-25T06:24:06;18.67;;;4.43;;
3704;SDS011;1868;48.918;9.438;2024-01-25T06:26:35;23.90;;;6.17;;
3704;SDS011;1868;48.918;9.438;2024-01-25T06:29:03;16.40;;;4.93;;
3704;SDS011;1868;48.918;9.438;2024-01-25T06:31:32;22.70;;;6.53;;
3704;SDS011;1868;48.918;9.438;2024-01-25T06:34:09;26.57;;;7.13;;
3704;SDS011;1868;48.918;9.438;2024-01-25T06:36:44;31.13;;;7.53;;
3704;SDS011;1868;48.918;9.438;2024-01-25T06:39:13;21.93;;;7.90;;
3704;SDS011;1868;48.918;9.438;2024-01-25T06:41:42;21.97;;;5.97;;
3704;SDS011;1868;48.918;9.438;2024-01-25T06:44:10;22.77;;;4.47;;
3704;SDS011;1868;48.918;9.438;2024-01-25T06:46:39;11.23;;;2.87;;
3704;SDS011;1868;48.918;9.438;2024-01-25T06:49:08;17.70;;;4.53;;
3704;SDS011;1868;48.918;9.438;2024-01-25T06:51:37;18.07;;;3.80;;
3704;SDS011;1868;48.918;9.438;2024-01-25T06:54:07;15.70;;;3.67;;
3704;SDS011;1868;48.918;9.438;2024-01-25T06:56:35;16.37;;;3.50;;
3704;SDS011;1868;48.918;9.438;2024-01-25T06:59:03;20.30;;;3.60;;
3704;SDS011;1868;48.918;9.438;2024-01-25T07:01:33;23.17;;;3.87;;
3704;SDS011;1868;48.918;9.438;2024-01-25T07:04:02;18.20;;;3.37;;
3704;SDS011;1868;48.918;9.438;2024-01-25T07:06:31;19.00;;;3.73;;
3704;SDS011;1868;48.918;9.438;2024-01-25T07:08:59;19.37;;;3.20;;
3704;SDS011;1868;48.918;9.438;2024-01-25T07:11:30;17.63;;;4.03;;
3704;SDS011;1868;48.918;9.438;2024-01-25T07:13:59;21.50;;;3.40;;
3704;SDS011;1868;48.918;9.438;2024-01-25T07:16:27;26.87;;;3.90;;
3704;SDS011;1868;48.918;9.438;2024-01-25T07:18:57;18.37;;;4.37;;
3704;SDS011;1868;48.918;9.438;2024-01-25T07:21:26;18.23;;;5.33;;
3704;SDS011;1868;48.918;9.438;2024-01-25T07:23:54;28.50;;;7.13;;
3704;SDS011;1868;48.918;9.438;2024-01-25T07:26:23;19.70;;;5.27;;
3704;SDS011;1868;48.918;9.438;2024-01-25T07:28:53;21.43;;;4.17;;
3704;SDS011;1868;48.918;9.438;2024-01-25T07:31:24;20.03;;;4.73;;
3704;SDS011;1868;48.918;9.438;2024-01-25T07:33:54;23.53;;;4.90;;
3704;SDS011;1868;48.918;9.438;2024-01-25T07:36:23;23.40;;;4.60;;
3704;SDS011;1868;48.918;9.438;2024-01-25T07:38:52;22.43;;;5.73;;
3704;SDS011;1868;48.918;9.438;2024-01-25T07:41:21;24.00;;;5.70;;
3704;SDS011;1868;48.918;9.438;2024-01-25T07:43:49;26.17;;;6.00;;
3704;SDS011;1868;48.918;9.438;2024-01-25T07:46:23;23.93;;;5.90;;
3704;SDS011;1868;48.918;9.438;2024-01-25T07:48:52;30.97;;;5.40;;
3704;SDS011;1868;48.918;9.438;2024-01-25T07:51:20;22.87;;;6.20;;
3704;SDS011;1868;48.918;9.438;2024-01-25T07:53:49;21.33;;;5.00;;
3704;SDS011;1868;48.918;9.438;2024-01-25T07:56:18;23.10;;;4.30;;
3704;SDS011;1868;48.918;9.438;2024-01-25T07:58:48;25.70;;;6.27;;
3704;SDS011;1868;48.918;9.438;2024-01-25T08:01:18;40.63;;;6.50;;
3704;SDS011;1868;48.918;9.438;2024-01-25T08:03:49;28.47;;;6.67;;
3704;SDS011;1868;48.918;9.438;2024-01-25T08:06:18;27.63;;;6.77;;
3704;SDS011;1868;48.918;9.438;2024-01-25T08:08:46;24.10;;;6.30;;
3704;SDS011;1868;48.918;9.438;2024-01-25T08:11:15;28.53;;;6.83;;
3704;SDS011;1868;48.918;9.438;2024-01-25T08:13:47;34.80;;;8.10;;
3704;SDS011;1868;48.918;9.438;2024-01-25T08:16:17;42.03;;;8.40;;
3704;SDS011;1868;48.918;9.438;2024-01-25T08:18:49;20.57;;;5.30;;
3704;SDS011;1868;48.918;9.438;2024-01-25T08:21:18;22.37;;;4.70;;
3704;SDS011;1868;48.918;9.438;2024-01-25T08:23:46;17.27;;;3.50;;
3704;SDS011;1868;48.918;9.438;2024-01-25T08:26:14;27.27;;;5.87;;
3704;SDS011;1868;48.918;9.438;2024-01-25T08:28:43;29.70;;;5.47;;
3704;SDS011;1868;48.918;9.438;2024-01-25T08:31:13;18.83;;;4.40;;
3704;SDS011;1868;48.918;9.438;2024-01-25T08:33:43;19.70;;;4.63;;
3704;SDS011;1868;48.918;9.438;2024-01-25T08:36:17;21.20;;;4.90;;
3704;SDS011;1868;48.918;9.438;2024-01-25T08:38:46;29.43;;;5.23;;
3704;SDS011;1868;48.918;9.438;2024-01-25T08:41:15;18.47;;;4.90;;
3704;SDS011;1868;48.918;9.438;2024-01-25T08:43:46;22.63;;;5.33;;
3704;SDS011;1868;48.918;9.438;2024-01-25T08:46:14;25.80;;;4.80;;
3704;SDS011;1868;48.918;9.438;2024-01-25T08:48:45;19.93;;;3.93;;
3704;SDS011;1868;48.918;9.438;2024-01-25T08:51:14;20.73;;;4.83;;
3704;SDS011;1868;48.918;9.438;2024-01-25T08:53:44;23.87;;;4.13;;
3704;SDS011;1868;48.918;9.438;2024-01-25T08:56:12;29.40;;;4.60;;
3704;SDS011;1868;48.918;9.438;2024-01-25T08:58:41;28.07;;;5.10;;
3704;SDS011;1868;48.918;9.438;2024-01-25T09:01:10;19.00;;;5.07;;
3704;SDS011;1868;48.918;9.438;2024-01-25T09:03:39;21.90;;;4.50;;
3704;SDS011;1868;48.918;9.438;2024-01-25T09:06:08;23.53;;;4.90;;
3704;SDS011;1868;48.918;9.438;2024-01-25T09:08:37;20.53;;;4.30;;
3704;SDS011;1868;48.918;9.438;2024-01-25T09:11:07;17.33;;;4.40;;
3704;SDS011;1868;48.918;9.438;2024-01-25T09:13:36;19.77;;;5.10;;
3704;SDS011;1868;48.918;9.438;2024-01-25T09:16:12;20.10;;;4.40;;
3704;SDS011;1868;48.918;9.438;2024-01-25T09:18:40;31.10;;;5.93;;
3704;SDS011;1868;48.918;9.438;2024-01-25T09:21:09;27.83;;;4.90;;
3704;SDS011;1868;48.918;9.438;2024-01-25T09:23:38;22.60;;;4.60;;
3704;SDS011;1868;48.918;9.438;2024-01-25T09:26:09;20.97;;;4.93;;
3704;SDS011;1868;48.918;9.438;2024-01-25T09:28:37;23.77;;;5.30;;
3704;SDS011;1868;48.918;9.438;2024-01-25T09:31:06;22.23;;;4.47;;
3704;SDS011;1868;48.918;9.438;2024-01-25T09:33:35;18.80;;;4.53;;
3704;SDS011;1868;48.918;9.438;2024-01-25T09:36:04;16.77;;;4.10;;
3704;SDS011;1868;48.918;9.438;2024-01-25T09:38:33;16.33;;;4.90;;
3704;SDS011;1868;48.918;9.438;2024-01-25T09:41:02;15.00;;;3.83;;
3704;SDS011;1868;48.918;9.438;2024-01-25T09:43:33;19.47;;;4.80;;
3704;SDS011;1868;48.918;9.438;2024-01-25T09:46:02;19.43;;;4.43;;
3704;SDS011;1868;48.918;9.438;2024-01-25T09:48:33;13.43;;;4.03;;
3704;SDS011;1868;48.918;9.438;2024-01-25T09:51:02;22.73;;;5.10;;
3704;SDS011;1868;48.918;9.438;2024-01-25T09:53:32;26.80;;;7.30;;
3704;SDS011;1868;48.918;9.438;2024-01-25T09:56:03;21.57;;;5.90;;
3704;SDS011;1868;48.918;9.438;2024-01-25T09:58:38;24.60;;;5.17;;
3704;SDS011;1868;48.918;9.438;2024-01-25T10:01:08;29.13;;;7.63;;
3704;SDS011;1868;48.918;9.438;2024-01-25T10:03:41;24.10;;;5.17;;
3704;SDS011;1868;48.918;9.438;2024-01-25T10:06:11;23.03;;;5.00;;
3704;SDS011;1868;48.918;9.438;2024-01-25T10:08:40;20.03;;;3.63;;
3704;SDS011;1868;48.918;9.438;2024-01-25T10:11:10;22.13;;;4.77;;
3704;SDS011;1868;48.918;9.438;2024-01-25T10:13:43;18.60;;;4.47;;
3704;SDS011;1868;48.918;9.438;2024-01-25T10:16:14;26.73;;;5.13;;
3704;SDS011;1868;48.918;9.438;2024-01-25T10:18:44;24.43;;;5.40;;
3704;SDS011;1868;48.918;9.438;2024-01-25T10:21:16;25.60;;;4.50;;
3704;SDS011;1868;48.918;9.438;2024-01-25T10:23:46;21.60;;;5.23;;
3704;SDS011;1868;48.918;9.438;2024-01-25T10:26:18;14.90;;;4.33;;
3704;SDS011;1868;48.918;9.438;2024-01-25T10:28:52;17.57;;;4.27;;
3704;SDS011;1868;48.918;9.438;2024-01-25T10:31:28;21.47;;;5.47;;
3704;SDS011;1868;48.918;9.438;2024-01-25T10:33:58;24.47;;;5.23;;
3704;SDS011;1868;48.918;9.438;2024-01-25T10:36:28;21.37;;;5.33;;
3704;SDS011;1868;48.918;9.438;2024-01-25T10:38:59;28.60;;;5.33;;
3704;SDS011;1868;48.918;9.438;2024-01-25T10:41:32;20.43;;;4.77;;
3704;SDS011;1868;48.918;9.438;2024-01-25T10:44:03;19.93;;;4.70;;
3704;SDS011;1868;48.918;9.438;2024-01-25T10:46:33;21.20;;;4.90;;
3704;SDS011;1868;48.918;9.438;2024-01-25T10:49:03;15.20;;;4.33;;
3704;SDS011;1868;48.918;9.438;2024-01-25T10:51:31;16.57;;;4.37;;
3704;SDS011;1868;48.918;9.438;2024-01-25T10:54:01;13.33;;;3.83;;
3704;SDS011;1868;48.918;9.438;2024-01-25T10:56:32;18.03;;;4.90;;
3704;SDS011;1868;48.918;9.438;2024-01-25T10:59:05;18.37;;;4.80;;
3704;SDS011;1868;48.918;9.438;2024-01-25T11:01:35;15.17;;;4.20;;
3704;SDS011;1868;48.918;9.438;2024-01-25T11:04:11;15.73;;;3.80;;
3704;SDS011;1868;48.918;9.438;2024-01-25T11:06:41;15.13;;;4.50;;
3704;SDS011;1868;48.918;9.438;2024-01-25T11:09:16;12.97;;;3.57;;
3704;SDS011;1868;48.918;9.438;2024-01-25T11:11:47;17.50;;;4.60;;
3704;SDS011;1868;48.918;9.438;2024-01-25T11:14:19;18.50;;;4.90;;
3704;SDS011;1868;48.918;9.438;2024-01-25T11:16:48;20.20;;;5.00;;
3704;SDS011;1868;48.918;9.438;2024-01-25T11:19:17;17.30;;;4.70;;
3704;SDS011;1868;48.918;9.438;2024-01-25T11:21:51;21.53;;;4.60;;
3704;SDS011;1868;48.918;9.438;2024-01-25T11:24:21;14.60;;;3.80;;
3704;SDS011;1868;48.918;9.438;2024-01-25T11:26:53;14.03;;;4.30;;
3704;SDS011;1868;48.918;9.438;2024-01-25T11:29:23;15.03;;;4.20;;
3704;SDS011;1868;48.918;9.438;2024-01-25T11:31:53;18.60;;;4.97;;
3704;SDS011;1868;48.918;9.438;2024-01-25T11:34:22;13.40;;;3.70;;
3704;SDS011;1868;48.918;9.438;2024-01-25T11:36:51;15.50;;;3.80;;
3704;SDS011;1868;48.918;9.438;2024-01-25T11:39:20;15.07;;;4.10;;
3704;SDS011;1868;48.918;9.438;2024-01-25T11:41:50;20.10;;;4.50;;
3704;SDS011;1868;48.918;9.438;2024-01-25T11:44:20;15.13;;;3.73;;
3704;SDS011;1868;48.918;9.438;2024-01-25T11:46:54;15.73;;;4.57;;
3704;SDS011;1868;48.918;9.438;2024-01-25T11:49:23;15.60;;;3.40;;
3704;SDS011;1868;48.918;9.438;2024-01-25T11:51:52;17.33;;;4.63;;
3704;SDS011;1868;48.918;9.438;2024-01-25T11:54:21;14.30;;;4.30;;
3704;SDS011;1868;48.918;9.438;2024-01-25T11:56:49;22.03;;;4.90;;
3704;SDS011;1868;48.918;9.438;2024-01-25T11:59:18;17.03;;;4.03;;
3704;SDS011;1868;48.918;9.438;2024-01-25T12:01:47;19.30;;;4.23;;
3704;SDS011;1868;48.918;9.438;2024-01-25T12:04:18;13.27;;;3.73;;
3704;SDS011;1868;48.918;9.438;2024-01-25T12:06:47;12.10;;;3.83;;
3704;SDS011;1868;48.918;9.438;2024-01-25T12:09:16;9.83;;;3.50;;
3704;SDS011;1868;48.918;9.438;2024-01-25T12:11:48;20.17;;;4.20;;
3704;SDS011;1868;48.918;9.438;2024-01-25T12:14:18;22.03;;;4.67;;
3704;SDS011;1868;48.918;9.438;2024-01-25T12:16:46;17.73;;;4.37;;
3704;SDS011;1868;48.918;9.438;2024-01-25T12:19:15;15.50;;;3.47;;
3704;SDS011;1868;48.918;9.438;2024-01-25T12:21:46;16.70;;;4.30;;
3704;SDS011;1868;48.918;9.438;2024-01-25T12:24:14;20.30;;;4.93;;
3704;SDS011;1868;48.918;9.438;2024-01-25T12:26:43;22.73;;;5.17;;
3704;SDS011;1868;48.918;9.438;2024-01-25T12:29:12;11.27;;;3.83;;
3704;SDS011;1868;48.918;9.438;2024-01-25T12:31:41;12.63;;;4.60;;
3704;SDS011;1868;48.918;9.438;2024-01-25T12:34:12;14.07;;;3.90;;
3704;SDS011;1868;48.918;9.438;2024-01-25T12:36:44;22.50;;;4.90;;
3704;SDS011;1868;48.918;9.438;2024-01-25T12:39:13;15.20;;;4.00;;
3704;SDS011;1868;48.918;9.438;2024-01-25T12:41:45;21.57;;;4.17;;
3704;SDS011;1868;48.918;9.438;2024-01-25T12:44:15;23.53;;;3.90;;
3704;SDS011;1868;48.918;9.438;2024-01-25T12:46:44;13.40;;;3.77;;
3704;SDS011;1868;48.918;9.438;2024-01-25T12:49:13;14.73;;;4.47;;
3704;SDS011;1868;48.918;9.438;2024-01-25T12:51:42;16.17;;;3.70;;
3704;SDS011;1868;48.918;9.438;2024-01-25T12:54:14;12.50;;;3.40;;
3704;SDS011;1868;48.918;9.438;2024-01-25T12:56:44;15.30;;;4.23;;
3704;SDS011;1868;48.918;9.438;2024-01-25T12:59:16;20.70;;;4.33;;
3704;SDS011;1868;48.918;9.438;2024-01-25T13:01:45;15.40;;;4.17;;
3704;SDS011;1868;48.918;9.438;2024-01-25T13:04:13;15.40;;;4.27;;
3704;SDS011;1868;48.918;9.438;2024-01-25T13:06:42;12.80;;;3.47;;
3704;SDS011;1868;48.918;9.438;2024-01-25T13:09:13;13.60;;;4.00;;
3704;SDS011;1868;48.918;9.438;2024-01-25T13:11:42;12.63;;;2.90;;
3704;SDS011;1868;48.918;9.438;2024-01-25T13:14:10;10.23;;;3.27;;
3704;SDS011;1868;48.918;9.438;2024-01-25T13:16:39;17.60;;;3.87;;
3704;SDS011;1868;48.918;9.438;2024-01-25T13:19:08;14.00;;;2.67;;
3704;SDS011;1868;48.918;9.438;2024-01-25T13:21:38;8.83;;;2.50;;
3704;SDS011;1868;48.918;9.438;2024-01-25T13:24:10;19.17;;;9.50;;
3704;SDS011;1868;48.918;9.438;2024-01-25T13:26:38;9.67;;;3.87;;
3704;SDS011;1868;48.918;9.438;2024-01-25T13:29:07;13.63;;;3.40;;
3704;SDS011;1868;48.918;9.438;2024-01-25T13:31:39;12.10;;;2.83;;
3704;SDS011;1868;48.918;9.438;2024-01-25T13:34:08;8.60;;;2.93;;
3704;SDS011;1868;48.918;9.438;2024-01-25T13:36:37;8.47;;;2.70;;
3704;SDS011;1868;48.918;9.438;2024-01-25T13:39:11;8.77;;;2.37;;
3704;SDS011;1868;48.918;9.438;2024-01-25T13:41:40;8.30;;;2.90;;
3704;SDS011;1868;48.918;9.438;2024-01-25T13:44:08;12.60;;;3.73;;
3704;SDS011;1868;48.918;9.438;2024-01-25T13:46:37;11.13;;;3.17;;
3704;SDS011;1868;48.918;9.438;2024-01-25T13:49:05;8.43;;;2.57;;
3704;SDS011;1868;48.918;9.438;2024-01-25T13:51:34;10.00;;;2.70;;
3704;SDS011;1868;48.918;9.438;2024-01-25T13:54:03;14.80;;;2.90;;
3704;SDS011;1868;48.918;9.438;2024-01-25T13:56:32;15.63;;;3.47;;
3704;SDS011;1868;48.918;9.438;2024-01-25T13:59:01;9.80;;;2.70;;
3704;SDS011;1868;48.918;9.438;2024-01-25T14:01:30;13.50;;;3.17;;
3704;SDS011;1868;48.918;9.438;2024-01-25T14:04:00;9.63;;;2.80;;
3704;SDS011;1868;48.918;9.438;2024-01-25T14:06:31;11.80;;;2.70;;
3704;SDS011;1868;48.918;9.438;2024-01-25T14:09:00;11.67;;;2.73;;
3704;SDS011;1868;48.918;9.438;2024-01-25T14:11:30;11.27;;;3.30;;
3704;SDS011;1868;48.918;9.438;2024-01-25T14:14:01;13.37;;;4.47;;
3704;SDS011;1868;48.918;9.438;2024-01-25T14:16:29;11.90;;;3.53;;
3704;SDS011;1868;48.918;9.438;2024-01-25T14:18:59;16.03;;;3.80;;
3704;SDS011;1868;48.918;9.438;2024-01-25T14:21:30;11.60;;;2.57;;
3704;SDS011;1868;48.918;9.438;2024-01-25T14:24:00;10.03;;;2.60;;
3704;SDS011;1868;48.918;9.438;2024-01-25T14:26:29;12.23;;;2.70;;
3704;SDS011;1868;48.918;9.438;2024-01-25T14:29:00;14.20;;;3.30;;
3704;SDS011;1868;48.918;9.438;2024-01-25T14:31:28;8.50;;;2.20;;
3704;SDS011;1868;48.918;9.438;2024-01-25T14:33:57;14.13;;;3.37;;
3704;SDS011;1868;48.918;9.438;2024-01-25T14:36:26;10.10;;;3.10;;
3704;SDS011;1868;48.918;9.438;2024-01-25T14:38:54;13.60;;;3.03;;
3704;SDS011;1868;48.918;9.438;2024-01-25T14:41:23;11.03;;;2.87;;
3704;SDS011;1868;48.918;9.438;2024-01-25T14:43:52;8.20;;;2.67;;
3704;SDS011;1868;48.918;9.438;2024-01-25T14:46:22;10.00;;;2.37;;
3704;SDS011;1868;48.918;9.438;2024-01-25T14:48:51;9.63;;;2.43;;
3704;SDS011;1868;48.918;9.438;2024-01-25T14:51:20;11.40;;;2.63;;
3704;SDS011;1868;48.918;9.438;2024-01-25T14:53:49;10.10;;;2.97;;
3704;SDS011;1868;48.918;9.438;2024-01-25T14:56:19;7.90;;;3.00;;
3704;SDS011;1868;48.918;9.438;2024-01-25T14:58:48;9.20;;;2.83;;
3704;SDS011;1868;48.918;9.438;2024-01-25T15:01:16;8.40;;;2.20;;
3704;SDS011;1868;48.918;9.438;2024-01-25T15:03:48;8.83;;;2.60;;
3704;SDS011;1868;48.918;9.438;2024-01-25T15:06:17;7.60;;;2.97;;
3704;SDS011;1868;48.918;9.438;2024-01-25T15:08:46;13.33;;;2.93;;
3704;SDS011;1868;48.918;9.438;2024-01-25T15:11:15;7.83;;;2.60;;
3704;SDS011;1868;48.918;9.438;2024-01-25T15:13:44;11.60;;;2.53;;
3704;SDS011;1868;48.918;9.438;2024-01-25T15:16:12;8.70;;;2.27;;